createdAt,value
2018-10-11T00:02:23.170Z,32.82
2018-10-11T00:04:59.814Z,32.33
2018-10-11T00:07:36.593Z,31.88
2018-10-11T00:10:13.011Z,32.20
2018-10-11T00:12:49.474Z,32.23
2018-10-11T00:15:25.727Z,32.44
2018-10-11T00:18:02.456Z,32.21
2018-10-11T00:20:38.842Z,32.50
2018-10-11T00:23:15.491Z,32.39
2018-10-11T00:25:51.790Z,32.51
2018-10-11T00:28:27.993Z,33.15
2018-10-11T00:31:04.009Z,32.33
2018-10-11T00:33:40.238Z,32.53
2018-10-11T00:36:16.575Z,32.17
2018-10-11T00:38:52.976Z,32.22
2018-10-11T00:41:30.253Z,31.75
2018-10-11T00:44:06.862Z,32.21
2018-10-11T00:46:42.833Z,31.71
2018-10-11T00:49:18.730Z,31.54
2018-10-11T00:51:55.096Z,31.94
2018-10-11T00:54:31.300Z,32.72
2018-10-11T00:57:07.763Z,32.02
2018-10-11T00:59:44.089Z,31.33
2018-10-11T01:03:07.865Z,32.52
2018-10-11T01:05:44.241Z,32.70
2018-10-11T01:08:20.283Z,31.96
2018-10-11T01:10:57.349Z,31.89
2018-10-11T01:13:33.830Z,32.70
2018-10-11T01:16:09.869Z,32.02
2018-10-11T01:18:47.926Z,31.56
2018-10-11T01:21:24.235Z,32.17
2018-10-11T01:24:00.641Z,32.28
2018-10-11T01:26:37.061Z,32.35
2018-10-11T01:29:13.208Z,31.04
2018-10-11T01:31:49.232Z,31.51
2018-10-11T01:34:25.558Z,32.34
2018-10-11T01:37:01.889Z,31.92
2018-10-11T01:39:38.095Z,32.15
2018-10-11T01:42:14.000Z,31.62
2018-10-11T01:44:50.642Z,33.11
2018-10-11T01:47:26.889Z,32.85
2018-10-11T01:50:05.273Z,31.37
2018-10-11T01:52:42.627Z,31.71
2018-10-11T01:55:19.352Z,31.96
2018-10-11T01:57:55.093Z,32.15
2018-10-11T02:00:31.174Z,32.71
2018-10-11T02:03:07.248Z,32.13
2018-10-11T02:05:43.853Z,32.35
2018-10-11T02:08:21.058Z,31.68
2018-10-11T02:10:56.981Z,31.82
2018-10-11T02:13:32.889Z,31.73
2018-10-11T02:16:08.886Z,31.89
2018-10-11T02:18:45.070Z,32.24
2018-10-11T02:21:20.890Z,32.26
2018-10-11T02:23:57.097Z,32.98
2018-10-11T02:26:33.832Z,32.20
2018-10-11T02:29:11.218Z,32.46
2018-10-11T02:31:47.711Z,32.14
2018-10-11T02:34:23.894Z,31.89
2018-10-11T02:36:59.883Z,32.42
2018-10-11T02:39:36.122Z,32.09
2018-10-11T02:42:12.572Z,31.88
2018-10-11T02:44:49.076Z,32.73
2018-10-11T02:47:25.265Z,31.59
2018-10-11T02:50:01.611Z,32.37
2018-10-11T02:52:38.079Z,32.32
2018-10-11T02:55:19.615Z,31.74
2018-10-11T02:58:09.507Z,31.84
2018-10-11T03:00:45.650Z,32.81
2018-10-11T03:03:25.729Z,32.57
2018-10-11T03:06:04.673Z,32.15
2018-10-11T03:08:41.030Z,32.45
2018-10-11T03:11:18.030Z,32.96
2018-10-11T03:13:53.905Z,32.32
2018-10-11T03:16:31.258Z,32.12
2018-10-11T03:19:07.745Z,32.73
2018-10-11T03:21:42.036Z,31.89
2018-10-11T03:24:17.924Z,32.88
2018-10-11T03:26:53.876Z,32.12
2018-10-11T03:29:30.365Z,32.26
2018-10-11T03:32:07.714Z,32.55
2018-10-11T03:34:44.631Z,32.88
2018-10-11T03:37:21.238Z,32.20
2018-10-11T03:39:57.374Z,32.12
2018-10-11T03:42:34.255Z,32.81
2018-10-11T03:45:10.254Z,32.13
2018-10-11T03:47:46.926Z,31.75
2018-10-11T03:50:23.290Z,32.55
2018-10-11T03:53:01.147Z,32.50
2018-10-11T03:55:37.308Z,32.02
2018-10-11T03:58:13.685Z,32.46
2018-10-11T04:00:47.836Z,31.92
2018-10-11T04:03:24.106Z,31.76
2018-10-11T04:05:59.910Z,32.53
2018-10-11T04:09:57.511Z,31.75
2018-10-11T04:12:33.273Z,31.86
2018-10-11T04:15:08.678Z,32.05
2018-10-11T04:17:44.906Z,32.25
2018-10-11T04:20:21.214Z,31.86
2018-10-11T04:25:29.334Z,32.39
2018-10-11T04:28:05.510Z,32.25
2018-10-11T04:30:41.265Z,32.27
2018-10-11T04:33:16.930Z,32.49
2018-10-11T04:35:52.920Z,31.84
2018-10-11T04:38:29.504Z,32.30
2018-10-11T04:41:05.489Z,32.31
2018-10-11T04:43:41.720Z,31.77
2018-10-11T04:46:18.940Z,32.87
2018-10-11T04:48:54.591Z,31.97
2018-10-11T04:51:30.689Z,32.48
2018-10-11T04:54:06.709Z,32.70
2018-10-11T04:56:42.717Z,33.07
2018-10-11T04:59:19.109Z,32.47
2018-10-11T05:01:56.411Z,32.79
2018-10-11T05:04:32.173Z,32.93
2018-10-11T05:07:08.293Z,32.96
2018-10-11T05:09:44.404Z,32.19
2018-10-11T05:12:20.179Z,31.90
2018-10-11T05:14:56.912Z,32.34
2018-10-11T05:17:32.713Z,31.88
2018-10-11T05:20:10.550Z,32.17
2018-10-11T05:22:46.333Z,33.05
2018-10-11T05:25:23.500Z,32.41
2018-10-11T05:28:00.004Z,33.02
2018-10-11T05:30:36.781Z,33.01
2018-10-11T05:33:12.781Z,33.04
2018-10-11T05:35:48.840Z,32.47
2018-10-11T05:38:24.719Z,32.29
2018-10-11T05:41:01.596Z,32.63
2018-10-11T05:43:37.963Z,32.32
2018-10-11T05:46:36.312Z,32.58
2018-10-11T05:49:12.805Z,32.22
2018-10-11T05:51:48.723Z,32.45
2018-10-11T05:54:24.861Z,32.38
2018-10-11T05:57:00.857Z,32.02
2018-10-11T05:59:36.779Z,31.83
2018-10-11T06:02:12.724Z,32.23
2018-10-11T06:04:48.710Z,31.44
2018-10-11T06:07:24.639Z,32.61
2018-10-11T06:10:00.813Z,32.10
2018-10-11T06:12:36.777Z,32.31
2018-10-11T06:15:12.424Z,32.63
2018-10-11T06:17:48.842Z,32.03
2018-10-11T06:20:24.824Z,31.67
2018-10-11T06:23:01.153Z,32.36
2018-10-11T06:25:37.775Z,31.66
2018-10-11T06:28:14.989Z,31.61
2018-10-11T06:30:51.037Z,30.85
2018-10-11T06:33:26.725Z,31.02
2018-10-11T06:36:03.098Z,31.39
2018-10-11T06:38:38.977Z,31.38
2018-10-11T06:41:14.971Z,31.10
2018-10-11T06:43:50.960Z,31.90
2018-10-11T06:46:26.656Z,31.18
2018-10-11T06:49:02.199Z,31.30
2018-10-11T06:51:38.386Z,31.61
2018-10-11T06:54:14.409Z,31.27
2018-10-11T06:56:50.982Z,31.36
2018-10-11T06:59:27.267Z,31.14
2018-10-11T07:02:03.262Z,31.30
2018-10-11T07:04:39.732Z,31.90
2018-10-11T07:07:15.958Z,31.91
2018-10-11T07:09:51.782Z,31.95
2018-10-11T07:12:27.366Z,30.84
2018-10-11T07:15:03.669Z,32.08
2018-10-11T07:17:40.719Z,32.26
2018-10-11T07:20:17.545Z,31.42
2018-10-11T07:22:53.593Z,31.65
2018-10-11T07:25:29.561Z,31.64
2018-10-11T07:28:06.161Z,31.44
2018-10-11T07:30:42.174Z,31.39
2018-10-11T07:33:18.218Z,30.67
2018-10-11T07:35:54.167Z,32.02
2018-10-11T07:38:30.002Z,31.24
2018-10-11T07:41:06.072Z,31.80
2018-10-11T07:43:42.637Z,31.16
2018-10-11T07:46:18.891Z,31.25
2018-10-11T07:51:23.974Z,31.05
2018-10-11T07:54:04.163Z,31.61
2018-10-11T07:56:40.549Z,31.58
2018-10-11T07:59:16.915Z,31.76
2018-10-11T08:01:52.909Z,31.33
2018-10-11T08:04:29.049Z,30.97
2018-10-11T08:07:05.175Z,31.29
2018-10-11T08:09:41.138Z,31.08
2018-10-11T08:12:17.353Z,31.10
2018-10-11T08:14:53.821Z,30.61
2018-10-11T08:17:30.031Z,30.59
2018-10-11T08:20:06.312Z,31.06
2018-10-11T08:22:42.792Z,30.98
2018-10-11T08:25:19.632Z,31.06
2018-10-11T08:27:53.725Z,31.09
2018-10-11T08:30:29.912Z,31.18
2018-10-11T08:33:06.232Z,31.57
2018-10-11T08:35:42.014Z,31.95
2018-10-11T08:38:18.888Z,31.61
2018-10-11T08:40:55.221Z,31.75
2018-10-11T08:43:31.265Z,31.02
2018-10-11T08:46:07.629Z,31.29
2018-10-11T08:48:43.973Z,31.30
2018-10-11T08:51:20.028Z,30.96
2018-10-11T08:53:56.353Z,30.78
2018-10-11T08:56:32.465Z,31.94
2018-10-11T08:59:09.054Z,31.49
2018-10-11T09:01:44.925Z,31.25
2018-10-11T09:04:21.025Z,30.74
2018-10-11T09:06:57.026Z,31.22
2018-10-11T09:09:33.209Z,30.72
2018-10-11T09:12:09.736Z,31.56
2018-10-11T09:14:45.869Z,31.45
2018-10-11T09:17:21.982Z,31.40
2018-10-11T09:19:58.013Z,31.83
2018-10-11T09:22:33.937Z,31.67
2018-10-11T09:25:09.945Z,30.97
2018-10-11T09:27:45.969Z,31.79
2018-10-11T09:30:22.431Z,30.87
2018-10-11T09:32:58.937Z,31.23
2018-10-11T09:35:35.036Z,31.89
2018-10-11T09:38:11.252Z,30.76
2018-10-11T09:40:47.237Z,30.63
2018-10-11T09:43:23.038Z,31.40
2018-10-11T09:45:58.946Z,31.97
2018-10-11T09:48:35.071Z,30.75
2018-10-11T09:51:12.258Z,31.00
2018-10-11T09:53:48.392Z,31.39
2018-10-11T09:56:25.043Z,31.48
2018-10-11T09:59:01.418Z,31.64
2018-10-11T10:01:48.854Z,31.46
2018-10-11T10:04:24.815Z,31.63
2018-10-11T10:07:01.221Z,30.78
2018-10-11T10:09:37.235Z,30.91
2018-10-11T10:12:13.847Z,31.81
2018-10-11T10:14:50.388Z,31.51
2018-10-11T10:17:26.225Z,31.83
2018-10-11T10:20:02.450Z,31.32
2018-10-11T10:22:41.739Z,31.48
2018-10-11T10:25:18.054Z,31.57
2018-10-11T10:27:54.058Z,31.55
2018-10-11T10:30:33.965Z,31.03
2018-10-11T10:33:10.017Z,31.97
2018-10-11T10:35:45.730Z,31.89
2018-10-11T10:38:21.890Z,31.42
2018-10-11T10:40:57.897Z,31.17
2018-10-11T10:43:33.869Z,31.37
2018-10-11T10:46:09.971Z,31.52
2018-10-11T10:48:45.751Z,31.21
2018-10-11T10:51:21.445Z,31.25
2018-10-11T10:53:57.806Z,31.61
2018-10-11T10:56:33.414Z,31.47
2018-10-11T10:59:09.410Z,31.44
2018-10-11T11:01:45.672Z,32.04
2018-10-11T11:04:22.000Z,31.60
2018-10-11T11:06:58.020Z,31.78
2018-10-11T11:09:34.020Z,31.07
2018-10-11T11:12:09.706Z,30.85
2018-10-11T11:14:45.734Z,31.31
2018-10-11T11:17:21.771Z,31.61
2018-10-11T11:19:58.231Z,31.61
2018-10-11T11:22:34.439Z,31.73
2018-10-11T11:25:10.439Z,31.37
2018-10-11T11:27:46.409Z,31.90
2018-10-11T11:30:23.252Z,31.27
2018-10-11T11:32:59.062Z,31.45
2018-10-11T11:35:35.747Z,31.36
2018-10-11T11:38:13.251Z,31.49
2018-10-11T11:40:49.250Z,31.15
2018-10-11T11:43:25.250Z,31.47
2018-10-11T11:46:01.245Z,31.13
2018-10-11T11:48:37.259Z,31.55
2018-10-11T11:51:14.458Z,31.28
2018-10-11T11:53:50.478Z,31.66
2018-10-11T11:56:26.457Z,31.65
2018-10-11T11:59:02.273Z,30.99
2018-10-11T12:01:38.265Z,31.64
2018-10-11T12:04:14.301Z,32.14
2018-10-11T12:06:50.453Z,32.22
2018-10-11T12:09:26.752Z,31.57
2018-10-11T12:12:03.091Z,31.34
2018-10-11T12:14:38.909Z,32.13
2018-10-11T12:17:14.709Z,30.84
2018-10-11T12:19:50.734Z,31.94
2018-10-11T12:22:27.137Z,31.51
2018-10-11T12:25:04.274Z,31.46
2018-10-11T12:27:40.030Z,31.42
2018-10-11T12:30:16.483Z,30.91
2018-10-11T12:32:52.506Z,31.42
2018-10-11T12:35:29.066Z,31.60
2018-10-11T12:38:05.341Z,30.86
2018-10-11T12:40:41.361Z,31.42
2018-10-11T12:43:18.107Z,31.41
2018-10-11T12:45:54.304Z,31.24
2018-10-11T12:48:30.025Z,31.51
2018-10-11T12:51:06.299Z,31.54
2018-10-11T12:53:45.093Z,30.91
2018-10-11T12:56:18.467Z,31.36
2018-10-11T12:58:54.305Z,31.65
2018-10-11T13:01:30.277Z,31.51
2018-10-11T13:04:06.464Z,30.78
2018-10-11T13:06:42.280Z,31.57
2018-10-11T13:09:18.342Z,31.51
2018-10-11T13:11:54.358Z,31.92
2018-10-11T13:14:30.281Z,31.31
2018-10-11T13:17:06.108Z,32.18
2018-10-11T13:19:42.111Z,30.87
2018-10-11T13:22:18.302Z,31.63
2018-10-11T13:24:54.286Z,31.40
2018-10-11T13:27:30.069Z,31.59
2018-10-11T13:30:06.290Z,30.90
2018-10-11T13:32:42.289Z,32.02
2018-10-11T13:35:18.008Z,31.15
2018-10-11T13:37:54.150Z,31.70
2018-10-11T13:40:30.295Z,31.23
2018-10-11T13:43:06.885Z,31.50
2018-10-11T13:47:52.299Z,32.04
2018-10-11T13:50:28.063Z,31.06
2018-10-11T13:53:04.102Z,30.91
2018-10-11T13:55:40.246Z,31.29
2018-10-11T13:58:16.303Z,31.61
2018-10-11T14:00:52.058Z,31.95
2018-10-11T14:03:28.080Z,31.39
2018-10-11T14:06:04.150Z,32.05
2018-10-11T14:08:40.140Z,30.82
2018-10-11T14:11:16.070Z,31.72
2018-10-11T14:13:53.040Z,31.45
2018-10-11T14:16:29.149Z,31.10
2018-10-11T14:19:05.135Z,31.56
2018-10-11T14:21:43.129Z,31.91
2018-10-11T14:24:19.586Z,30.88
2018-10-11T14:26:56.130Z,31.73
2018-10-11T14:29:32.521Z,31.55
2018-10-11T14:32:08.326Z,31.17
2018-10-11T14:34:44.337Z,31.11
2018-10-11T14:37:21.079Z,32.40
2018-10-11T14:39:57.122Z,31.45
2018-10-11T14:42:33.133Z,31.64
2018-10-11T14:45:10.078Z,31.88
2018-10-11T14:47:46.049Z,31.28
2018-10-11T14:50:22.484Z,31.43
2018-10-11T14:52:59.048Z,31.60
2018-10-11T14:55:35.078Z,32.07
2018-10-11T14:58:11.144Z,31.57
2018-10-11T15:00:47.140Z,32.00
2018-10-11T15:03:23.399Z,31.76
2018-10-11T15:05:59.543Z,32.74
2018-10-11T15:08:35.500Z,32.29
2018-10-11T15:11:11.756Z,32.50
2018-10-11T15:13:47.903Z,31.83
2018-10-11T15:16:24.138Z,32.66
2018-10-11T15:19:00.269Z,31.92
2018-10-11T15:21:36.147Z,32.99
2018-10-11T15:24:12.495Z,32.34
2018-10-11T15:26:48.887Z,31.75
2018-10-11T15:29:25.267Z,32.49
2018-10-11T15:32:01.924Z,32.51
2018-10-11T15:34:37.967Z,32.66
2018-10-11T15:37:14.145Z,32.19
2018-10-11T15:39:50.354Z,32.04
2018-10-11T15:42:26.207Z,33.16
2018-10-11T15:45:02.068Z,33.13
2018-10-11T15:47:38.336Z,32.75
2018-10-11T15:50:14.153Z,32.13
2018-10-11T15:52:50.151Z,33.14
2018-10-11T15:55:26.340Z,33.05
2018-10-11T15:58:02.910Z,32.42
2018-10-11T16:00:39.054Z,33.56
2018-10-11T16:03:15.129Z,33.51
2018-10-11T16:05:51.166Z,33.31
2018-10-11T16:08:27.333Z,32.47
2018-10-11T16:11:03.158Z,33.69
2018-10-11T16:16:30.087Z,33.66
2018-10-11T16:19:05.810Z,33.58
2018-10-11T16:21:42.288Z,32.33
2018-10-11T16:24:18.334Z,32.45
2018-10-11T16:26:54.074Z,33.44
2018-10-11T16:29:29.529Z,33.43
2018-10-11T16:32:05.081Z,32.62
2018-10-11T16:34:41.046Z,33.23
2018-10-11T16:37:17.346Z,33.07
2018-10-11T16:39:53.061Z,32.56
2018-10-11T16:42:29.365Z,33.93
2018-10-11T16:45:05.377Z,33.43
2018-10-11T16:47:41.259Z,33.53
2018-10-11T16:50:17.365Z,33.68
2018-10-11T16:52:53.345Z,33.32
2018-10-11T16:55:28.902Z,33.38
2018-10-11T16:58:05.475Z,33.95
2018-10-11T17:00:41.845Z,34.15
2018-10-11T17:03:17.549Z,34.81
2018-10-11T17:05:53.299Z,34.24
2018-10-11T17:08:29.177Z,34.86
2018-10-11T17:11:05.993Z,33.67
2018-10-11T17:13:41.989Z,35.05
2018-10-11T17:16:17.929Z,34.50
2018-10-11T17:18:54.353Z,33.93
2018-10-11T17:21:30.437Z,34.32
2018-10-11T17:24:06.349Z,34.99
2018-10-11T17:26:42.003Z,34.00
2018-10-11T17:29:18.952Z,33.57
2018-10-11T17:34:18.010Z,34.11
2018-10-11T17:36:53.566Z,33.51
2018-10-11T17:39:29.311Z,34.01
2018-10-11T17:42:05.149Z,34.27
2018-10-11T17:44:40.847Z,34.41
2018-10-11T17:47:17.184Z,33.41
2018-10-11T17:49:52.821Z,34.24
2018-10-11T17:52:28.930Z,34.05
2018-10-11T17:55:05.323Z,34.64
2018-10-11T17:57:41.195Z,34.33
2018-10-11T18:00:17.587Z,33.80
2018-10-11T18:02:54.210Z,33.92
2018-10-11T18:05:29.942Z,33.27
2018-10-11T18:08:05.550Z,33.23
2018-10-11T18:10:42.328Z,33.92
2018-10-11T18:13:18.853Z,33.82
2018-10-11T18:15:54.954Z,33.92
2018-10-11T18:18:31.004Z,33.77
2018-10-11T18:21:07.865Z,34.01
2018-10-11T18:23:44.368Z,33.63
2018-10-11T18:26:20.421Z,33.78
2018-10-11T18:28:55.861Z,34.08
2018-10-11T18:31:32.203Z,33.73
2018-10-11T18:34:08.109Z,33.68
2018-10-11T18:36:43.576Z,33.74
2018-10-11T18:39:19.381Z,33.19
2018-10-11T18:41:55.051Z,33.61
2018-10-11T18:44:31.445Z,33.73
2018-10-11T18:47:06.986Z,33.51
2018-10-11T18:49:42.391Z,34.19
2018-10-11T18:52:18.216Z,33.46
2018-10-11T18:54:54.335Z,33.93
2018-10-11T18:57:30.388Z,34.10
2018-10-11T19:00:06.040Z,34.13
2018-10-11T19:02:41.585Z,33.85
2018-10-11T19:05:17.545Z,34.38
2018-10-11T19:07:53.216Z,34.30
2018-10-11T19:10:28.580Z,34.00
2018-10-11T19:13:04.189Z,34.65
2018-10-11T19:15:39.693Z,33.87
2018-10-11T19:18:15.577Z,33.97
2018-10-11T19:20:51.595Z,33.28
2018-10-11T19:23:27.851Z,34.05
2018-10-11T19:26:04.030Z,34.16
2018-10-11T19:28:39.704Z,34.20
2018-10-11T19:31:15.931Z,33.87
2018-10-11T19:33:51.570Z,33.88
2018-10-11T19:36:28.054Z,33.73
2018-10-11T19:39:04.564Z,34.04
2018-10-11T19:41:40.585Z,33.07
2018-10-11T19:44:16.602Z,33.67
2018-10-11T19:46:53.145Z,33.51
2018-10-11T19:49:29.229Z,33.72
2018-10-11T19:52:05.230Z,33.72
2018-10-11T19:54:42.640Z,33.64
2018-10-11T19:57:18.408Z,33.34
2018-10-11T19:59:54.193Z,33.49
2018-10-11T20:02:30.231Z,33.72
2018-10-11T20:05:06.430Z,33.13
2018-10-11T20:07:42.057Z,34.05
2018-10-11T20:10:17.934Z,33.15
2018-10-11T20:12:54.405Z,33.04
2018-10-11T20:15:30.570Z,33.27
2018-10-11T20:18:06.585Z,33.18
2018-10-11T20:20:42.240Z,32.64
2018-10-11T20:23:18.242Z,33.72
2018-10-11T20:25:54.234Z,33.01
2018-10-11T20:28:30.993Z,33.03
2018-10-11T20:31:07.418Z,32.85
2018-10-11T20:33:43.214Z,32.93
2018-10-11T20:36:19.413Z,32.42
2018-10-11T20:38:55.421Z,33.35
2018-10-11T20:41:31.589Z,33.23
2018-10-11T20:44:08.574Z,32.45
2018-10-11T20:46:44.665Z,33.36
2018-10-11T20:49:20.422Z,32.75
2018-10-11T20:51:56.246Z,33.19
2018-10-11T20:54:32.131Z,32.78
2018-10-11T20:57:08.997Z,32.81
2018-10-11T20:59:45.146Z,32.87
2018-10-11T21:02:21.250Z,32.94
2018-10-11T21:04:57.431Z,32.30
2018-10-11T21:07:33.337Z,32.95
2018-10-11T21:10:09.426Z,33.09
2018-10-11T21:12:45.999Z,33.04
2018-10-11T21:15:21.967Z,33.11
2018-10-11T21:17:58.633Z,33.27
2018-10-11T21:20:34.867Z,32.67
2018-10-11T21:23:11.235Z,32.73
2018-10-11T21:25:47.245Z,32.37
2018-10-11T21:28:23.540Z,32.57
2018-10-11T21:31:00.009Z,32.50
2018-10-11T21:33:36.442Z,32.01
2018-10-11T21:36:12.308Z,32.52
2018-10-11T21:38:48.261Z,32.83
2018-10-11T21:41:24.137Z,31.82
2018-10-11T21:44:00.093Z,31.75
2018-10-11T21:46:36.163Z,32.84
2018-10-11T21:49:12.262Z,32.37
2018-10-11T21:51:48.475Z,32.69
2018-10-11T21:54:24.447Z,32.70
2018-10-11T21:57:00.089Z,31.98
2018-10-11T21:59:36.186Z,31.81
2018-10-11T22:02:12.253Z,32.11
2018-10-11T22:04:48.070Z,32.08
2018-10-11T22:07:24.007Z,31.42
2018-10-11T22:10:00.074Z,32.17
2018-10-11T22:12:35.627Z,32.16
2018-10-11T22:15:11.301Z,31.49
2018-10-11T22:17:47.150Z,31.25
2018-10-11T22:20:23.264Z,31.74
2018-10-11T22:22:59.603Z,31.39
2018-10-11T22:25:36.067Z,31.86
2018-10-11T22:28:12.276Z,31.26
2018-10-11T22:30:48.297Z,31.82
2018-10-11T22:33:24.498Z,32.01
2018-10-11T22:36:00.866Z,31.58
2018-10-11T22:38:36.921Z,31.75
2018-10-11T22:41:13.949Z,31.24
2018-10-11T22:43:49.940Z,31.14
2018-10-11T22:46:25.650Z,31.78
2018-10-11T22:49:02.181Z,31.13
2018-10-11T22:51:38.456Z,32.22
2018-10-11T22:54:14.843Z,30.92
2018-10-11T22:56:51.148Z,31.57
2018-10-11T22:59:27.282Z,30.87
2018-10-11T23:02:03.308Z,30.95
2018-10-11T23:04:39.752Z,32.03
2018-10-11T23:07:15.582Z,30.84
2018-10-11T23:09:51.970Z,31.32
2018-10-11T23:12:28.230Z,31.34
2018-10-11T23:15:03.958Z,31.55
2018-10-11T23:17:40.292Z,30.30
2018-10-11T23:20:16.014Z,31.13
2018-10-11T23:22:51.765Z,30.89
2018-10-11T23:25:28.153Z,30.60
2018-10-11T23:28:04.151Z,31.04
2018-10-11T23:30:40.228Z,31.39
2018-10-11T23:33:16.227Z,30.69
2018-10-11T23:35:52.093Z,30.74
2018-10-11T23:38:28.226Z,30.59
2018-10-11T23:41:04.665Z,31.29
2018-10-11T23:43:40.687Z,30.81
2018-10-11T23:46:16.867Z,30.44
2018-10-11T23:48:52.744Z,30.80
2018-10-11T23:51:28.729Z,30.81
2018-10-11T23:54:04.661Z,31.12
2018-10-11T23:56:40.503Z,30.55
2018-10-11T23:59:16.473Z,31.81
